Time;durP1;ratioP1;P1;durP2;ratioP2;P2;SDS_P1;SDS_P2;PMS_P1;PMS_P2;Temp;Humidity;BMP_temperature;BMP_pressure;BME280_temperature;BME280_humidity;BME280_pressure;Samples;Min_cycle;Max_cycle;Signal;HPM_P1;HPM_P2
2022/04/13 00:00:28;;;;;;;;;;;;;;;12.17;64.39;100773.19;5062478;28;20322;-84
2022/04/13 00:02:54;;;;;;;;;;;;;;;11.98;65.15;100770.88;5058309;28;20019;-87
2022/04/13 00:05:19;;;;;;;;;;;;;;;11.89;66.18;100767.38;5055165;28;20408;-86
2022/04/13 00:07:45;;;;;;;;;;;;;;;11.99;65.20;100761.91;5055684;28;19920;-86
2022/04/13 00:10:10;;;;;;;;;;;;;;;11.97;65.14;100763.03;5054734;28;19920;-86
2022/04/13 00:12:36;;;;;;;;;;;;;;;12.02;64.46;100771.38;5054268;28;19917;-86
2022/04/13 00:15:02;;;;;;;;;;;;;;;11.87;65.46;100773.81;5051819;28;19921;-87
2022/04/13 00:17:28;;;;;;;;;;;;;;;11.79;65.93;100765.88;5053808;28;19975;-86
2022/04/13 00:19:53;;;;;;;;;;;;;;;11.77;65.85;100771.31;5057874;28;19921;-85
2022/04/13 00:22:19;;;;;;;;;;;;;;;11.90;65.21;100769.03;5052671;28;19931;-86
2022/04/13 00:24:45;;;;;;;;;;;;;;;11.86;65.63;100767.69;5052952;28;19921;-86
2022/04/13 00:27:10;;;;;;;;;;;;;;;12.05;64.71;100763.06;5052829;28;19928;-87
2022/04/13 00:29:36;;;;;;;;;;;;;;;11.94;64.90;100761.56;5052889;28;20393;-85
2022/04/13 00:32:03;;;;;;;;;;;;;;;11.81;65.43;100758.56;5053180;28;19921;-86
2022/04/13 00:34:32;;;;;;;;;;;;;;;11.83;64.31;100760.03;5052985;28;20268;-87
2022/04/13 00:36:58;;;;;;;;;;;;;;;12.00;63.19;100763.56;5050919;28;20442;-86
2022/04/13 00:39:27;;;;;;;;;;;;;;;11.82;64.49;100758.41;5052807;28;19920;-85
2022/04/13 00:41:57;;;;;;;;;;;;;;;11.77;64.45;100752.75;5052036;28;19916;-87
2022/04/13 00:44:22;;;;;;;;;;;;;;;11.96;63.34;100764.06;5053121;28;19948;-87
2022/04/13 00:46:47;;;;;;;;;;;;;;;11.93;63.20;100755.41;5052640;28;20400;-85
2022/04/13 00:49:14;;;;;;;;;;;;;;;11.85;64.05;100758.06;5052438;28;19920;-86
2022/04/13 00:51:40;;;;;;;;;;;;;;;12.02;62.91;100761.56;5053299;28;19921;-86
2022/04/13 00:54:06;;;;;;;;;;;;;;;11.85;64.57;100759.91;5056630;28;19920;-87
2022/04/13 00:56:33;;;;;;;;;;;;;;;11.81;64.37;100762.06;5066794;28;19905;-86
2022/04/13 00:59:06;;;;;;;;;;;;;;;11.83;64.74;100765.34;5053547;28;19925;-88
2022/04/13 01:01:33;;;;;;;;;;;;;;;11.65;65.18;100769.13;5054518;28;19920;-88
2022/04/13 01:04:00;;;;;;;;;;;;;;;11.77;64.77;100771.31;5064634;28;19962;-87
2022/04/13 01:06:27;;;;;;;;;;;;;;;11.39;66.85;100767.41;5075293;28;19909;-86
2022/04/13 01:08:53;;;;;;;;;;;;;;;11.47;65.99;100761.28;5078243;28;19944;-85
2022/04/13 01:11:19;;;;;;;;;;;;;;;11.27;66.77;100765.19;5064019;28;19925;-86
2022/04/13 01:13:44;;;;;;;;;;;;;;;11.14;67.49;100764.81;5053362;28;19960;-86
2022/04/13 01:16:10;;;;;;;;;;;;;;;11.32;66.80;100761.09;5053338;28;19967;-86
2022/04/13 01:18:35;;;;;;;;;;;;;;;11.38;65.71;100762.25;5054153;28;20393;-87
2022/04/13 01:21:01;;;;;;;;;;;;;;;11.46;65.56;100767.59;5054079;28;19913;-87
2022/04/13 01:23:27;;;;;;;;;;;;;;;11.22;67.34;100771.00;5054001;28;19920;-86
2022/04/13 01:25:53;;;;;;;;;;;;;;;11.26;67.52;100760.91;5053894;28;19917;-87
2022/04/13 01:28:19;;;;;;;;;;;;;;;11.53;65.87;100765.13;5054155;28;19920;-86
2022/04/13 01:30:47;;;;;;;;;;;;;;;11.23;67.18;100763.88;5052856;28;20452;-87
2022/04/13 01:33:12;;;;;;;;;;;;;;;11.01;68.46;100764.41;5052527;28;19917;-85
2022/04/13 01:35:38;;;;;;;;;;;;;;;10.99;68.96;100758.47;5054776;28;19921;-87
2022/04/13 01:38:04;;;;;;;;;;;;;;;10.73;70.40;100756.69;5072126;28;20389;-84
2022/04/13 01:40:30;;;;;;;;;;;;;;;10.79;70.46;100760.50;5073261;28;19932;-85
2022/04/13 01:42:55;;;;;;;;;;;;;;;10.92;69.49;100754.78;5078062;28;19916;-85
2022/04/13 01:45:21;;;;;;;;;;;;;;;10.84;69.73;100764.34;5070936;28;19925;-85
2022/04/13 01:47:48;;;;;;;;;;;;;;;10.73;70.76;100756.69;5056361;28;19963;-86
2022/04/13 01:50:13;;;;;;;;;;;;;;;10.67;70.90;100762.59;5054587;28;20019;-86
2022/04/13 01:52:38;;;;;;;;;;;;;;;10.69;71.07;100757.16;5052813;28;19964;-85
2022/04/13 01:55:04;;;;;;;;;;;;;;;10.78;70.70;100764.97;5053427;28;19924;-86
2022/04/13 01:57:29;;;;;;;;;;;;;;;10.72;71.32;100764.78;5054236;28;19929;-86
2022/04/13 01:59:55;;;;;;;;;;;;;;;10.71;72.28;100763.94;5053017;28;19917;-86
2022/04/13 02:02:21;;;;;;;;;;;;;;;10.83;70.65;100757.41;5053233;28;19924;-84
2022/04/13 02:04:48;;;;;;;;;;;;;;;10.95;70.46;100762.41;5053539;28;20015;-84
2022/04/13 02:07:14;;;;;;;;;;;;;;;10.94;70.47;100763.41;5053017;28;20336;-85
2022/04/13 02:09:39;;;;;;;;;;;;;;;11.18;69.18;100760.84;5053183;28;19921;-85
2022/04/13 02:12:05;;;;;;;;;;;;;;;11.04;69.37;100762.28;5052912;28;19975;-86
2022/04/13 02:14:30;;;;;;;;;;;;;;;10.87;70.44;100753.41;5053761;28;20412;-84
2022/04/13 02:16:56;;;;;;;;;;;;;;;10.88;70.54;100757.75;5055311;28;19972;-86
2022/04/13 02:19:21;;;;;;;;;;;;;;;10.80;71.33;100748.94;5056533;28;19925;-88
2022/04/13 02:21:47;;;;;;;;;;;;;;;10.73;71.20;100750.53;5056117;28;19928;-86
2022/04/13 02:24:14;;;;;;;;;;;;;;;10.83;71.23;100754.75;5056310;28;19917;-87
2022/04/13 02:26:39;;;;;;;;;;;;;;;10.74;71.66;100753.03;5055410;28;19970;-86
2022/04/13 02:29:04;;;;;;;;;;;;;;;10.50;73.81;100755.56;5056980;28;20015;-87
2022/04/13 02:31:30;;;;;;;;;;;;;;;10.64;73.84;100747.00;5056672;28;19959;-85
2022/04/13 02:33:56;;;;;;;;;;;;;;;10.56;73.80;100744.31;5056713;28;20082;-87
2022/04/13 02:36:21;;;;;;;;;;;;;;;10.61;73.45;100742.00;5055379;28;19917;-85
2022/04/13 02:38:47;;;;;;;;;;;;;;;10.76;73.01;100743.13;5056931;28;20070;-87
2022/04/13 02:41:12;;;;;;;;;;;;;;;10.57;73.98;100735.34;5057429;28;19924;-85
2022/04/13 02:43:38;;;;;;;;;;;;;;;10.34;75.14;100734.25;5063205;28;20381;-86
2022/04/13 02:46:03;;;;;;;;;;;;;;;10.21;75.64;100728.50;5064193;28;19921;-84
2022/04/13 02:48:29;;;;;;;;;;;;;;;10.17;77.19;100727.16;5067279;28;19976;-84
2022/04/13 02:50:56;;;;;;;;;;;;;;;10.31;76.39;100723.94;5057274;28;19924;-86
2022/04/13 02:53:22;;;;;;;;;;;;;;;10.04;77.50;100721.41;5056863;28;19916;-85
2022/04/13 02:55:48;;;;;;;;;;;;;;;10.02;77.67;100724.19;5056330;28;19947;-86
2022/04/13 02:58:13;;;;;;;;;;;;;;;9.95;79.58;100724.94;5055011;28;20300;-85
2022/04/13 03:00:39;;;;;;;;;;;;;;;10.19;77.41;100730.47;5058598;28;19917;-85
2022/04/13 03:03:04;;;;;;;;;;;;;;;9.99;79.09;100719.22;5058237;28;20434;-87
2022/04/13 03:05:30;;;;;;;;;;;;;;;9.75;80.47;100719.84;5056332;28;19913;-85
2022/04/13 03:07:55;;;;;;;;;;;;;;;9.59;81.30;100721.50;5054477;28;20301;-86
2022/04/13 03:10:21;;;;;;;;;;;;;;;9.57;82.28;100719.00;5055759;28;19920;-85
2022/04/13 03:12:46;;;;;;;;;;;;;;;9.61;82.62;100715.06;5056305;28;19926;-87
2022/04/13 03:15:12;;;;;;;;;;;;;;;9.60;82.11;100713.41;5055764;28;19967;-86
2022/04/13 03:17:38;;;;;;;;;;;;;;;9.43;83.61;100710.75;5055769;28;19924;-86
2022/04/13 03:20:03;;;;;;;;;;;;;;;9.10;85.85;100718.34;5054562;28;19928;-86
2022/04/13 03:22:29;;;;;;;;;;;;;;;9.18;85.87;100723.72;5055529;28;19928;-87
2022/04/13 03:24:54;;;;;;;;;;;;;;;9.04;87.37;100726.88;5055946;28;19925;-87
2022/04/13 03:27:20;;;;;;;;;;;;;;;9.18;86.27;100721.06;5037522;28;19944;-86
2022/04/13 03:29:45;;;;;;;;;;;;;;;9.07;87.34;100720.44;5055906;28;19955;-87
2022/04/13 03:32:11;;;;;;;;;;;;;;;9.06;87.76;100722.25;5054125;28;19924;-86
2022/04/13 03:34:36;;;;;;;;;;;;;;;9.07;87.57;100709.88;5054994;28;19920;-86
2022/04/13 03:37:01;;;;;;;;;;;;;;;9.31;85.85;100712.81;5055525;28;19928;-87
2022/04/13 03:39:27;;;;;;;;;;;;;;;9.07;87.27;100715.16;5055180;28;19920;-87
2022/04/13 03:41:53;;;;;;;;;;;;;;;9.01;87.67;100708.66;5054109;28;20436;-87
2022/04/13 03:44:19;;;;;;;;;;;;;;;9.01;88.06;100713.13;5055735;28;19921;-87
2022/04/13 03:46:44;;;;;;;;;;;;;;;9.07;88.37;100720.44;5055329;28;19920;-88
2022/04/13 03:49:10;;;;;;;;;;;;;;;9.22;86.71;100711.84;5055102;28;20436;-88
2022/04/13 03:51:36;;;;;;;;;;;;;;;9.38;85.83;100718.31;5053758;28;19924;-86
2022/04/13 03:54:01;;;;;;;;;;;;;;;9.34;85.44;100710.69;5054920;28;20396;-87
2022/04/13 03:56:28;;;;;;;;;;;;;;;9.24;86.75;100717.84;5064634;28;19900;-85
2022/04/13 03:58:54;;;;;;;;;;;;;;;9.27;86.41;100725.50;5079197;28;19948;-87
2022/04/13 04:01:19;;;;;;;;;;;;;;;9.58;84.73;100715.38;5078797;28;19932;-86
2022/04/13 04:03:48;;;;;;;;;;;;;;;9.69;82.13;100725.72;5056153;28;19966;-87
2022/04/13 04:06:13;;;;;;;;;;;;;;;9.60;83.77;100724.00;5054795;28;19917;-88
2022/04/13 04:08:38;;;;;;;;;;;;;;;9.69;84.40;100725.72;5054987;28;19974;-87
2022/04/13 04:11:04;;;;;;;;;;;;;;;9.57;83.11;100726.13;5054621;28;19921;-87
2022/04/13 04:13:30;;;;;;;;;;;;;;;9.36;83.92;100736.97;5055046;28;19925;-85
2022/04/13 04:15:56;;;;;;;;;;;;;;;9.35;83.77;100724.72;5054985;28;19921;-85
2022/04/13 04:18:21;;;;;;;;;;;;;;;9.43;83.81;100734.56;5055382;28;19923;-88
2022/04/13 04:20:47;;;;;;;;;;;;;;;9.61;82.34;100728.28;5054613;28;19929;-87
2022/04/13 04:23:13;;;;;;;;;;;;;;;9.55;82.70;100726.25;5054273;28;20067;-86
2022/04/13 04:25:38;;;;;;;;;;;;;;;9.59;82.86;100716.19;5055265;28;19960;-87
2022/04/13 04:28:06;;;;;;;;;;;;;;;9.83;81.48;100729.66;5058040;28;19917;-91
2022/04/13 04:30:31;;;;;;;;;;;;;;;9.95;80.74;100730.25;5057110;28;19920;-87
2022/04/13 04:32:57;;;;;;;;;;;;;;;9.88;81.69;100744.09;5057700;28;20346;-87
2022/04/13 04:35:23;;;;;;;;;;;;;;;9.65;81.77;100742.06;5058138;28;19968;-91
2022/04/13 04:37:48;;;;;;;;;;;;;;;9.46;83.58;100740.38;5059380;28;19921;-90
2022/04/13 04:40:17;;;;;;;;;;;;;;;9.49;84.20;100748.03;5062580;28;19921;-88
2022/04/13 04:42:49;;;;;;;;;;;;;;;9.38;83.21;100745.56;5063848;28;19925;-88
2022/04/13 04:45:19;;;;;;;;;;;;;;;9.06;85.92;100753.97;5060864;28;19928;-87
2022/04/13 04:47:47;;;;;;;;;;;;;;;9.00;87.21;100761.66;5063042;28;19920;-89
2022/04/13 04:50:14;;;;;;;;;;;;;;;8.89;86.88;100762.69;5063368;28;20015;-90
2022/04/13 04:52:43;;;;;;;;;;;;;;;8.64;88.88;100756.25;5060498;28;19921;-88
2022/04/13 04:55:09;;;;;;;;;;;;;;;8.78;88.49;100758.41;5053862;28;19928;-85
2022/04/13 04:57:36;;;;;;;;;;;;;;;8.88;88.12;100760.19;5054188;28;20571;-83
2022/04/13 05:00:03;;;;;;;;;;;;;;;9.13;87.23;100767.44;5055034;28;19924;-88
2022/04/13 05:02:28;;;;;;;;;;;;;;;9.11;86.59;100772.06;5055865;28;19921;-89
2022/04/13 05:04:54;;;;;;;;;;;;;;;9.14;87.29;100780.53;5042324;28;19924;-86
2022/04/13 05:07:19;;;;;;;;;;;;;;;9.22;86.39;100782.41;5051086;28;19921;-87
2022/04/13 05:09:45;;;;;;;;;;;;;;;9.40;86.07;100778.03;5035777;28;20378;-86
2022/04/13 05:12:10;;;;;;;;;;;;;;;9.39;85.70;100779.00;5033922;28;19921;-86
2022/04/13 05:14:36;;;;;;;;;;;;;;;9.54;85.05;100785.47;5044034;28;19936;-87
2022/04/13 05:17:14;;;;;;;;;;;;;;;9.72;84.74;100781.00;5042846;28;20015;-88
2022/04/13 05:19:40;;;;;;;;;;;;;;;10.33;83.22;100785.56;5037529;28;19921;-90
2022/04/13 05:22:06;;;;;;;;;;;;;;;11.26;78.62;100790.09;5035998;28;19959;-91
2022/04/13 05:24:31;;;;;;;;;;;;;;;11.40;73.42;100786.81;5030196;28;19921;-87
2022/04/13 05:26:57;;;;;;;;;;;;;;;11.59;71.39;100797.16;5038014;28;20019;-90
2022/04/13 05:29:22;;;;;;;;;;;;;;;11.54;71.02;100793.31;5051051;28;20495;-88
2022/04/13 05:31:48;;;;;;;;;;;;;;;11.19;71.83;100797.84;5042556;28;19946;-90
2022/04/13 05:34:13;;;;;;;;;;;;;;;11.38;71.09;100800.25;5053939;28;19951;-88
2022/04/13 05:36:39;;;;;;;;;;;;;;;11.63;68.53;100797.66;5054359;28;19921;-89
2022/04/13 05:39:04;;;;;;;;;;;;;;;11.50;69.14;100798.09;5054801;28;19925;-89
2022/04/13 05:41:30;;;;;;;;;;;;;;;11.80;69.03;100805.53;5054754;28;19917;-89
2022/04/13 05:43:57;;;;;;;;;;;;;;;12.49;66.78;100809.56;5055832;28;19921;-90
2022/04/13 05:46:23;;;;;;;;;;;;;;;12.38;65.21;100804.59;5043183;28;19921;-88
2022/04/13 05:48:49;;;;;;;;;;;;;;;12.43;64.14;100804.91;5036453;28;19927;-94
2022/04/13 05:51:14;;;;;;;;;;;;;;;12.32;64.53;100802.59;5039388;28;19927;-88
2022/04/13 05:53:40;;;;;;;;;;;;;;;12.09;66.22;100804.25;5037324;28;20437;-86
2022/04/13 05:56:05;;;;;;;;;;;;;;;11.89;68.17;100809.88;5044568;28;19925;-88
2022/04/13 05:58:31;;;;;;;;;;;;;;;11.72;69.14;100802.88;5060180;28;20348;-91
2022/04/13 06:00:56;;;;;;;;;;;;;;;12.26;66.66;100809.38;5062128;28;19975;-92
2022/04/13 06:03:24;;;;;;;;;;;;;;;12.35;65.49;100811.06;5058897;28;19917;-91
2022/04/13 06:05:50;;;;;;;;;;;;;;;13.05;61.35;100821.94;5059945;28;19920;-91
2022/04/13 06:08:16;;;;;;;;;;;;;;;13.63;59.77;100826.88;5063838;28;19917;-90
2022/04/13 06:10:41;;;;;;;;;;;;;;;14.12;57.20;100823.94;5061654;28;19920;-91
2022/04/13 06:13:10;;;;;;;;;;;;;;;13.15;59.84;100829.75;5062505;28;20031;-91
2022/04/13 06:15:35;;;;;;;;;;;;;;;12.91;61.19;100838.59;5044506;28;20297;-91
2022/04/13 06:18:01;;;;;;;;;;;;;;;13.02;61.98;100834.75;5041776;28;19921;-91
2022/04/13 06:20:27;;;;;;;;;;;;;;;14.17;58.73;100834.88;5060795;28;19924;-92
2022/04/13 06:22:58;;;;;;;;;;;;;;;14.34;56.38;100833.78;5043892;28;19928;-88
2022/04/13 06:25:24;;;;;;;;;;;;;;;15.64;52.57;100834.13;5061771;28;19928;-92
2022/04/13 06:27:52;;;;;;;;;;;;;;;15.83;51.55;100838.88;5063828;28;20372;-91
2022/04/13 06:30:17;;;;;;;;;;;;;;;15.66;51.89;100842.75;5061316;28;19924;-90
2022/04/13 06:33:02;;;;;;;;;;;;;;;15.17;53.86;100847.00;5065724;28;20005;-90
2022/04/13 06:35:30;;;;;;;;;;;;;;;15.06;53.01;100850.13;5061978;28;19920;-91
2022/04/13 06:37:56;;;;;;;;;;;;;;;15.23;53.43;100851.59;5060311;28;19955;-91
2022/04/13 06:40:22;;;;;;;;;;;;;;;14.57;56.47;100845.28;5061286;28;19924;-89
2022/04/13 06:42:48;;;;;;;;;;;;;;;14.68;55.86;100844.81;5060664;28;19932;-91
2022/04/13 06:45:15;;;;;;;;;;;;;;;15.52;53.44;100854.28;5059746;28;19998;-92
2022/04/13 06:47:41;;;;;;;;;;;;;;;15.65;52.62;100856.28;5066278;28;20329;-91
2022/04/13 06:50:09;;;;;;;;;;;;;;;16.00;51.67;100853.66;5047684;28;19925;-93
2022/04/13 06:52:35;;;;;;;;;;;;;;;16.20;50.58;100861.06;5060431;28;19917;-93
2022/04/13 06:55:09;;;;;;;;;;;;;;;15.98;50.47;100858.34;5061093;28;19921;-89
2022/04/13 06:57:37;;;;;;;;;;;;;;;15.60;51.56;100864.91;5064377;28;19978;-92
2022/04/13 07:00:07;;;;;;;;;;;;;;;15.74;51.30;100856.00;5062552;28;19991;-87
2022/04/13 07:02:34;;;;;;;;;;;;;;;15.45;51.78;100861.34;5070930;28;19928;-87
2022/04/13 07:05:01;;;;;;;;;;;;;;;15.27;52.24;100863.59;5082595;28;19920;-89
2022/04/13 07:07:41;;;;;;;;;;;;;;;16.59;50.04;100856.09;5089533;28;19941;-88
2022/04/13 07:10:07;;;;;;;;;;;;;;;16.78;49.05;100865.31;5093153;28;19931;-87
2022/04/13 07:12:54;;;;;;;;;;;;;;;17.19;47.25;100868.09;5090822;28;19985;-90
2022/04/13 07:15:19;;;;;;;;;;;;;;;16.66;48.58;100870.38;5093898;28;19988;-89
2022/04/13 07:17:46;;;;;;;;;;;;;;;17.07;47.61;100873.13;5092201;28;19920;-87
2022/04/13 07:20:11;;;;;;;;;;;;;;;16.68;48.11;100873.69;5078186;28;19920;-91
2022/04/13 07:22:53;;;;;;;;;;;;;;;16.37;49.64;100879.31;5078969;28;20377;-86
2022/04/13 07:25:19;;;;;;;;;;;;;;;15.95;51.51;100873.94;5058741;28;19925;-90
2022/04/13 07:27:48;;;;;;;;;;;;;;;15.77;53.09;100882.38;5070572;28;19966;-88
2022/04/13 07:30:14;;;;;;;;;;;;;;;16.24;52.16;100879.19;5074187;28;19938;-89
2022/04/13 07:32:45;;;;;;;;;;;;;;;16.98;47.34;100880.50;5070346;28;19928;-91
2022/04/13 07:35:14;;;;;;;;;;;;;;;17.47;45.65;100883.09;5068109;28;20006;-93
2022/04/13 07:37:40;;;;;;;;;;;;;;;17.59;44.98;100875.34;5069505;28;20012;-90
2022/04/13 07:40:13;;;;;;;;;;;;;;;16.46;48.04;100882.72;5071075;28;19936;-93
2022/04/13 07:42:39;;;;;;;;;;;;;;;16.42;49.00;100887.63;5089449;28;19920;-92
2022/04/13 07:45:05;;;;;;;;;;;;;;;17.11;47.77;100882.44;5083902;28;20404;-88
2022/04/13 07:47:31;;;;;;;;;;;;;;;17.54;45.68;100885.78;5083580;28;19920;-88
2022/04/13 07:49:57;;;;;;;;;;;;;;;18.53;43.83;100887.00;5084215;28;19921;-88
2022/04/13 07:52:26;;;;;;;;;;;;;;;17.71;45.38;100889.84;5082862;28;19931;-89
2022/04/13 07:54:54;;;;;;;;;;;;;;;17.56;45.37;100891.84;5068823;28;19933;-91
2022/04/13 07:57:20;;;;;;;;;;;;;;;18.02;44.92;100898.22;5070176;28;20300;-89
2022/04/13 07:59:45;;;;;;;;;;;;;;;18.78;43.36;100887.22;5048558;28;19925;-89
2022/04/13 08:02:16;;;;;;;;;;;;;;;19.17;43.01;100889.06;5064526;28;19901;-88
2022/04/13 08:04:41;;;;;;;;;;;;;;;19.13;43.26;100895.88;5065026;28;19921;-88
2022/04/13 08:07:08;;;;;;;;;;;;;;;19.91;42.10;100906.47;5067664;28;19924;-90
2022/04/13 08:09:37;;;;;;;;;;;;;;;19.80;42.50;100892.84;5060931;28;19920;-86
2022/04/13 08:12:04;;;;;;;;;;;;;;;19.40;43.47;100897.47;5056096;28;19921;-87
2022/04/13 08:14:29;;;;;;;;;;;;;;;18.75;45.65;100891.16;5055293;28;19924;-89
2022/04/13 08:16:55;;;;;;;;;;;;;;;19.29;45.27;100901.63;5056695;28;20015;-88
2022/04/13 08:19:20;;;;;;;;;;;;;;;19.45;44.50;100889.66;5076210;28;19920;-90
2022/04/13 08:21:45;;;;;;;;;;;;;;;19.52;43.10;100893.16;5077184;28;19974;-88
2022/04/13 08:24:11;;;;;;;;;;;;;;;19.90;43.03;100910.19;5075212;28;20388;-90
2022/04/13 08:26:36;;;;;;;;;;;;;;;20.10;42.89;100902.84;5074728;28;19927;-88
2022/04/13 08:29:02;;;;;;;;;;;;;;;19.88;43.68;100901.50;5076225;28;20399;-86
2022/04/13 08:31:29;;;;;;;;;;;;;;;20.44;41.57;100907.03;5076658;28;19943;-91
2022/04/13 08:33:54;;;;;;;;;;;;;;;20.74;41.97;100906.41;5076237;28;19924;-87
2022/04/13 08:36:19;;;;;;;;;;;;;;;21.62;39.05;100914.09;5059403;28;19946;-86
2022/04/13 08:38:45;;;;;;;;;;;;;;;21.40;39.53;100909.38;5059221;28;19921;-90
2022/04/13 08:41:14;;;;;;;;;;;;;;;21.69;37.22;100905.09;5054823;28;20304;-86
2022/04/13 08:43:44;;;;;;;;;;;;;;;20.63;39.12;100916.84;5052382;28;19924;-84
2022/04/13 08:46:13;;;;;;;;;;;;;;;20.21;37.29;100916.66;5053072;28;20186;-88
2022/04/13 08:48:40;;;;;;;;;;;;;;;20.07;38.14;100915.91;5050206;28;19921;-86
2022/04/13 08:51:08;;;;;;;;;;;;;;;19.76;39.09;100919.34;5053041;28;19921;-88
2022/04/13 08:53:37;;;;;;;;;;;;;;;19.83;37.75;100919.31;5055411;28;19925;-90
2022/04/13 08:56:03;;;;;;;;;;;;;;;19.96;39.00;100920.09;5058982;28;19921;-88
2022/04/13 08:58:47;;;;;;;;;;;;;;;19.39;39.40;100928.13;5057190;28;19932;-95
2022/04/13 09:01:16;;;;;;;;;;;;;;;19.70;39.25;100912.13;5059843;28;19980;-87
2022/04/13 09:03:48;;;;;;;;;;;;;;;20.37;39.33;100916.19;5056856;28;19927;-86
2022/04/13 09:06:15;;;;;;;;;;;;;;;20.29;38.38;100917.25;5052379;28;19963;-85
2022/04/13 09:08:46;;;;;;;;;;;;;;;20.35;39.12;100911.00;5047281;28;19931;-85
2022/04/13 09:11:15;;;;;;;;;;;;;;;20.05;39.38;100912.63;5072205;28;20263;-89
2022/04/13 09:13:42;;;;;;;;;;;;;;;19.55;40.20;100911.56;5053084;28;19946;-88
2022/04/13 09:16:07;;;;;;;;;;;;;;;19.55;40.99;100916.94;5053913;28;19921;-90
2022/04/13 09:18:33;;;;;;;;;;;;;;;20.49;39.44;100909.06;5053522;28;19982;-90
2022/04/13 09:20:59;;;;;;;;;;;;;;;20.77;37.04;100920.25;5057073;28;20011;-89
2022/04/13 09:23:27;;;;;;;;;;;;;;;20.42;35.16;100927.13;5055062;28;19928;-91
2022/04/13 09:25:56;;;;;;;;;;;;;;;19.56;35.01;100913.19;5048160;28;19920;-90
2022/04/13 09:28:22;;;;;;;;;;;;;;;19.78;34.52;100911.91;5061102;28;19928;-90
2022/04/13 09:30:47;;;;;;;;;;;;;;;19.99;34.22;100916.97;5057638;28;20316;-90
2022/04/13 09:33:13;;;;;;;;;;;;;;;19.72;35.65;100915.41;5058085;28;20438;-90
2022/04/13 09:35:38;;;;;;;;;;;;;;;20.01;35.99;100917.59;5058511;28;20023;-85
2022/04/13 09:38:05;;;;;;;;;;;;;;;20.93;34.08;100916.19;5067409;28;19927;-86
2022/04/13 09:40:33;;;;;;;;;;;;;;;20.79;33.01;100920.03;5058756;28;19970;-88
2022/04/13 09:43:05;;;;;;;;;;;;;;;21.06;34.48;100903.44;5058236;28;20010;-89
2022/04/13 09:45:34;;;;;;;;;;;;;;;21.41;33.73;100911.03;5060984;28;19921;-87
2022/04/13 09:48:03;;;;;;;;;;;;;;;21.75;32.39;100910.41;5061022;28;19920;-88
2022/04/13 09:50:29;;;;;;;;;;;;;;;21.37;32.23;100907.94;5063298;28;20443;-87
2022/04/13 09:52:55;;;;;;;;;;;;;;;21.64;33.20;100908.50;5047396;28;19971;-87
2022/04/13 09:55:24;;;;;;;;;;;;;;;22.22;32.49;100905.28;5081406;28;19912;-87
2022/04/13 09:57:49;;;;;;;;;;;;;;;22.38;31.73;100904.63;5081555;28;19908;-91
2022/04/13 10:00:15;;;;;;;;;;;;;;;22.33;31.30;100912.59;5081347;28;19909;-89
2022/04/13 10:02:42;;;;;;;;;;;;;;;22.06;31.47;100904.03;5081359;28;19913;-89
2022/04/13 10:05:16;;;;;;;;;;;;;;;22.31;31.00;100910.13;5078531;28;19919;-91
2022/04/13 10:07:43;;;;;;;;;;;;;;;21.77;31.27;100902.94;5070832;28;20009;-87
2022/04/13 10:10:22;;;;;;;;;;;;;;;21.96;31.46;100901.88;5061269;28;19917;-87
2022/04/13 10:12:47;;;;;;;;;;;;;;;21.77;30.66;100897.53;5047779;28;19971;-90
2022/04/13 10:15:13;;;;;;;;;;;;;;;21.70;31.08;100896.78;5064775;28;19921;-92
2022/04/13 10:17:39;;;;;;;;;;;;;;;21.83;31.02;100895.78;5059912;28;19963;-88
2022/04/13 10:20:05;;;;;;;;;;;;;;;21.74;30.21;100898.00;5058914;28;20372;-88
2022/04/13 10:22:33;;;;;;;;;;;;;;;21.46;32.75;100890.41;5062778;28;19956;-88
2022/04/13 10:25:26;;;;;;;;;;;;;;;21.77;32.94;100881.34;5071812;28;19948;-86
2022/04/13 10:27:59;;;;;;;;;;;;;;;22.55;32.37;100882.13;5067408;28;19963;-90
2022/04/13 10:30:29;;;;;;;;;;;;;;;22.74;32.28;100872.09;5071812;28;19921;-89
2022/04/13 10:33:02;;;;;;;;;;;;;;;22.72;31.96;100874.22;5061079;28;19996;-90
2022/04/13 10:35:28;;;;;;;;;;;;;;;22.37;32.24;100865.97;5042981;28;20015;-91
2022/04/13 10:37:55;;;;;;;;;;;;;;;22.25;31.53;100875.09;5047855;28;19920;-87
2022/04/13 10:40:21;;;;;;;;;;;;;;;21.55;32.13;100872.03;5078465;28;19930;-88
2022/04/13 10:42:51;;;;;;;;;;;;;;;21.90;32.01;100864.19;5078112;28;19928;-87
2022/04/13 10:45:19;;;;;;;;;;;;;;;22.70;31.70;100865.53;5078797;28;20363;-87
2022/04/13 10:47:54;;;;;;;;;;;;;;;23.01;30.46;100850.81;5060259;28;19943;-88
2022/04/13 10:50:41;;;;;;;;;;;;;;;22.65;32.85;100868.06;5059633;28;19928;-85
2022/04/13 10:53:38;;;;;;;;;;;;;;;22.96;32.76;100864.25;5080527;22;19908;-87
2022/04/13 10:56:05;;;;;;;;;;;;;;;22.88;33.59;100846.47;5000845;28;19952;-88
2022/04/13 10:58:30;;;;;;;;;;;;;;;23.04;33.43;100856.59;4965295;28;19921;-87
2022/04/13 11:00:59;;;;;;;;;;;;;;;22.30;34.10;100848.25;4982554;28;20441;-85
2022/04/13 11:03:25;;;;;;;;;;;;;;;22.45;32.84;100852.16;4999639;28;19977;-86
2022/04/13 11:05:54;;;;;;;;;;;;;;;22.24;33.03;100868.09;5038582;28;20034;-86
2022/04/13 11:08:20;;;;;;;;;;;;;;;22.04;34.25;100861.06;5047792;28;19968;-86
2022/04/13 11:10:49;;;;;;;;;;;;;;;22.23;33.81;100852.94;5059788;28;19928;-86
2022/04/13 11:13:15;;;;;;;;;;;;;;;22.01;33.61;100855.28;5045406;28;20070;-87
2022/04/13 11:15:48;;;;;;;;;;;;;;;21.55;34.74;100861.25;5096733;28;19920;-86
2022/04/13 11:18:17;;;;;;;;;;;;;;;21.72;33.61;100850.69;5083720;28;19920;-90
2022/04/13 11:20:58;;;;;;;;;;;;;;;21.11;34.15;100847.00;5063052;28;20400;-89
2022/04/13 11:23:49;;;;;;;;;;;;;;;21.69;32.73;100851.97;5060842;28;19936;-86
2022/04/13 11:26:16;;;;;;;;;;;;;;;22.07;30.72;100857.91;5086159;28;19920;-87
2022/04/13 11:28:41;;;;;;;;;;;;;;;21.76;30.18;100860.81;5085053;28;19927;-88
2022/04/13 11:31:12;;;;;;;;;;;;;;;22.46;29.15;100863.78;5081985;28;19920;-88
2022/04/13 11:33:43;;;;;;;;;;;;;;;22.89;28.01;100850.00;5079707;28;19927;-86
2022/04/13 11:36:08;;;;;;;;;;;;;;;22.11;29.98;100861.81;5076715;28;19927;-88
2022/04/13 11:38:36;;;;;;;;;;;;;;;22.25;29.77;100850.81;5086255;28;20069;-83
2022/04/13 11:41:08;;;;;;;;;;;;;;;21.56;30.19;100846.72;5081471;28;19916;-86
2022/04/13 11:43:38;;;;;;;;;;;;;;;21.61;30.84;100844.16;5080885;28;19931;-87
2022/04/13 11:46:04;;;;;;;;;;;;;;;21.63;30.87;100842.91;5065917;28;19919;-89
2022/04/13 11:48:35;;;;;;;;;;;;;;;20.64;32.69;100847.66;5057755;28;19920;-85
2022/04/13 11:51:20;;;;;;;;;;;;;;;20.42;32.51;100839.09;5076179;28;19968;-87
2022/04/13 11:53:55;;;;;;;;;;;;;;;20.28;32.66;100832.19;5075089;28;19924;-86
2022/04/13 11:56:36;;;;;;;;;;;;;;;20.22;32.92;100838.38;5077288;28;19920;-88
2022/04/13 11:59:03;;;;;;;;;;;;;;;19.97;33.35;100841.03;5082931;28;19927;-88
2022/04/13 12:01:33;;;;;;;;;;;;;;;19.87;33.65;100834.47;5058719;28;19992;-86
2022/04/13 12:04:08;;;;;;;;;;;;;;;19.93;33.72;100838.97;5084133;28;20004;-90
2022/04/13 12:06:36;;;;;;;;;;;;;;;19.61;34.39;100830.03;5068493;28;19920;-83
2022/04/13 12:09:06;;;;;;;;;;;;;;;19.57;35.07;100823.44;5071280;28;20011;-88
2022/04/13 12:11:59;;;;;;;;;;;;;;;19.50;34.72;100828.00;5078269;28;19909;-93
2022/04/13 12:14:33;;;;;;;;;;;;;;;19.53;34.61;100824.88;5095515;28;19938;-90
2022/04/13 12:17:00;;;;;;;;;;;;;;;19.50;34.57;100823.47;5098040;28;19909;-86
2022/04/13 12:19:36;;;;;;;;;;;;;;;19.52;34.23;100834.00;5101960;28;19916;-90
2022/04/13 12:22:12;;;;;;;;;;;;;;;19.54;35.20;100824.69;5045798;28;19921;-91
2022/04/13 12:24:37;;;;;;;;;;;;;;;19.41;35.49;100818.53;5057587;28;19959;-88
2022/04/13 12:27:10;;;;;;;;;;;;;;;19.23;36.03;100821.03;5073070;28;19916;-91
2022/04/13 12:29:35;;;;;;;;;;;;;;;19.21;36.87;100807.81;5061137;28;19928;-87
2022/04/13 12:32:09;;;;;;;;;;;;;;;19.38;37.12;100808.19;5077238;28;19923;-93
2022/04/13 12:34:34;;;;;;;;;;;;;;;19.43;36.29;100808.38;5079627;28;20337;-90
2022/04/13 12:37:01;;;;;;;;;;;;;;;19.32;36.90;100809.84;5076924;28;19952;-91
2022/04/13 12:39:29;;;;;;;;;;;;;;;19.54;38.66;100810.41;5060868;28;19920;-89